createdAt,value
2019-02-04T00:01:33.068Z,20.92
2019-02-04T00:04:00.942Z,20.08
2019-02-04T00:06:28.925Z,17.92
2019-02-04T00:08:56.934Z,19.70
2019-02-04T00:11:25.506Z,18.43
2019-02-04T00:13:54.657Z,21.73
2019-02-04T00:16:23.161Z,19.27
2019-02-04T00:18:51.599Z,18.35
2019-02-04T00:21:19.956Z,19.02
2019-02-04T00:23:48.300Z,22.37
2019-02-04T00:26:16.592Z,19.10
2019-02-04T00:28:44.901Z,17.10
2019-02-04T00:31:13.169Z,18.67
2019-02-04T00:33:41.121Z,19.85
2019-02-04T00:36:10.349Z,19.55
2019-02-04T00:38:38.492Z,16.97
2019-02-04T00:41:06.877Z,17.27
2019-02-04T00:43:35.151Z,17.45
2019-02-04T00:46:03.528Z,18.02
2019-02-04T00:48:32.622Z,17.70
2019-02-04T00:51:00.671Z,23.55
2019-02-04T00:53:28.975Z,17.25
2019-02-04T00:55:57.061Z,16.77
2019-02-04T00:58:25.489Z,19.48
2019-02-04T01:00:54.113Z,18.75
2019-02-04T01:03:24.228Z,19.03
2019-02-04T01:05:52.309Z,21.17
2019-02-04T01:08:20.921Z,16.75
2019-02-04T01:10:48.957Z,17.80
2019-02-04T01:13:17.025Z,15.07
2019-02-04T01:15:45.808Z,14.20
2019-02-04T01:18:13.805Z,14.30
2019-02-04T01:20:42.050Z,13.33
2019-02-04T01:23:10.309Z,14.10
2019-02-04T01:25:39.641Z,18.40
2019-02-04T01:28:07.740Z,15.93
2019-02-04T01:30:35.694Z,12.88
2019-02-04T01:33:03.961Z,16.77
2019-02-04T01:35:32.585Z,13.38
2019-02-04T01:38:01.061Z,16.73
2019-02-04T01:40:30.837Z,15.20
2019-02-04T01:43:00.758Z,18.87
2019-02-04T01:45:29.038Z,19.27
2019-02-04T01:47:58.118Z,20.70
2019-02-04T01:50:26.375Z,21.27
2019-02-04T01:52:54.790Z,20.45
2019-02-04T01:55:22.913Z,18.10
2019-02-04T01:57:52.165Z,18.97
2019-02-04T02:00:22.253Z,18.42
2019-02-04T02:02:50.211Z,17.20
2019-02-04T02:05:18.939Z,20.35
2019-02-04T02:07:46.890Z,18.98
2019-02-04T02:10:16.522Z,20.97
2019-02-04T02:12:45.914Z,25.37
2019-02-04T02:15:15.669Z,25.65
2019-02-04T02:17:43.698Z,22.45
2019-02-04T02:20:12.996Z,22.73
2019-02-04T02:22:40.980Z,24.80
2019-02-04T02:25:09.308Z,25.60
2019-02-04T02:27:37.424Z,28.60
2019-02-04T02:30:06.451Z,26.05
2019-02-04T02:32:34.442Z,26.93
2019-02-04T02:35:02.526Z,25.32
2019-02-04T02:37:30.833Z,23.02
2019-02-04T02:39:58.800Z,21.57
2019-02-04T02:42:26.807Z,26.85
2019-02-04T02:44:54.826Z,25.07
2019-02-04T02:47:23.317Z,21.60
2019-02-04T02:49:51.798Z,24.33
2019-02-04T02:52:20.400Z,26.05
2019-02-04T02:54:48.661Z,21.45
2019-02-04T02:57:16.652Z,24.23
2019-02-04T02:59:46.503Z,27.65
2019-02-04T03:02:14.523Z,25.57
2019-02-04T03:04:44.312Z,26.00
2019-02-04T03:07:12.307Z,25.85
2019-02-04T03:09:40.406Z,25.43
2019-02-04T03:12:08.969Z,23.25
2019-02-04T03:14:37.547Z,20.92
2019-02-04T03:17:06.909Z,18.27
2019-02-04T03:19:35.356Z,25.08
2019-02-04T03:22:03.325Z,20.25
2019-02-04T03:24:31.627Z,19.10
2019-02-04T03:26:59.865Z,16.27
2019-02-04T03:29:27.832Z,16.40
2019-02-04T03:31:56.207Z,19.65
2019-02-04T03:34:24.222Z,17.02
2019-02-04T03:36:53.269Z,19.67
2019-02-04T03:39:21.562Z,15.05
2019-02-04T03:41:49.881Z,16.32
2019-02-04T03:44:19.596Z,17.75
2019-02-04T03:46:47.601Z,17.17
2019-02-04T03:49:15.832Z,15.32
2019-02-04T03:51:44.482Z,18.90
2019-02-04T03:54:12.799Z,15.13
2019-02-04T03:56:40.826Z,16.37
2019-02-04T03:59:08.770Z,16.55
2019-02-04T04:01:36.735Z,15.43
2019-02-04T04:04:05.337Z,20.08
2019-02-04T04:06:34.637Z,15.60
2019-02-04T04:09:02.913Z,15.32
2019-02-04T04:11:30.902Z,14.28
2019-02-04T04:13:59.160Z,15.03
2019-02-04T04:16:27.545Z,13.97
2019-02-04T04:18:56.085Z,16.77
2019-02-04T04:21:24.438Z,14.25
2019-02-04T04:23:53.067Z,13.75
2019-02-04T04:26:20.996Z,16.42
2019-02-04T04:28:49.235Z,14.47
2019-02-04T04:31:17.206Z,13.53
2019-02-04T04:33:45.732Z,16.75
2019-02-04T04:36:14.373Z,11.30
2019-02-04T04:38:42.958Z,15.20
2019-02-04T04:41:11.248Z,15.53
2019-02-04T04:43:39.600Z,13.68
2019-02-04T04:46:08.156Z,13.57
2019-02-04T04:48:36.425Z,15.08
2019-02-04T04:51:04.765Z,12.57
2019-02-04T04:53:33.645Z,15.48
2019-02-04T04:56:01.924Z,15.88
2019-02-04T04:58:31.375Z,12.10
2019-02-04T05:00:59.684Z,13.65
2019-02-04T05:03:28.596Z,13.70
2019-02-04T05:05:56.820Z,17.35
2019-02-04T05:08:25.549Z,13.83
2019-02-04T05:10:53.835Z,15.95
2019-02-04T05:13:21.806Z,15.23
2019-02-04T05:15:50.081Z,15.77
2019-02-04T05:18:18.083Z,14.47
2019-02-04T05:20:46.058Z,11.70
2019-02-04T05:23:17.230Z,12.18
2019-02-04T05:25:44.325Z,16.30
2019-02-04T05:28:12.277Z,14.65
2019-02-04T05:30:40.270Z,13.50
2019-02-04T05:33:08.608Z,11.20
2019-02-04T05:35:36.899Z,14.80
2019-02-04T05:38:05.153Z,20.37
2019-02-04T05:40:34.026Z,13.53
2019-02-04T05:43:02.022Z,15.70
2019-02-04T05:45:29.972Z,13.40
2019-02-04T05:47:57.945Z,16.20
2019-02-04T05:50:27.618Z,13.57
2019-02-04T05:52:55.858Z,13.90
2019-02-04T05:55:24.563Z,15.50
2019-02-04T05:57:52.839Z,13.78
2019-02-04T06:00:25.855Z,13.00
2019-02-04T06:02:54.183Z,14.65
2019-02-04T06:05:22.176Z,14.68
2019-02-04T06:07:50.143Z,14.65
2019-02-04T06:10:18.413Z,16.10
2019-02-04T06:12:46.376Z,13.83
2019-02-04T06:15:14.435Z,14.15
2019-02-04T06:17:42.709Z,17.67
2019-02-04T06:20:11.931Z,14.07
2019-02-04T06:22:40.511Z,16.23
2019-02-04T06:25:09.518Z,14.43
2019-02-04T06:27:37.478Z,18.00
2019-02-04T06:30:05.720Z,18.32
2019-02-04T06:32:34.632Z,20.60
2019-02-04T06:35:02.772Z,19.57
2019-02-04T06:37:31.408Z,18.10
2019-02-04T06:39:59.366Z,20.95
2019-02-04T06:42:27.695Z,23.70
2019-02-04T06:44:55.931Z,16.48
2019-02-04T06:47:23.917Z,19.20
2019-02-04T06:49:52.155Z,17.32
2019-02-04T06:52:20.169Z,18.32
2019-02-04T06:54:48.396Z,18.47
2019-02-04T06:57:16.684Z,14.63
2019-02-04T06:59:44.970Z,15.13
2019-02-04T07:02:13.300Z,13.50
2019-02-04T07:04:41.257Z,15.55
2019-02-04T07:07:09.511Z,15.93
2019-02-04T07:09:38.929Z,13.98
2019-02-04T07:12:07.805Z,13.75
2019-02-04T07:14:37.576Z,14.80
2019-02-04T07:17:05.633Z,13.58
2019-02-04T07:19:33.567Z,13.03
2019-02-04T07:22:01.532Z,13.77
2019-02-04T07:24:29.744Z,15.67
2019-02-04T07:26:57.720Z,16.55
2019-02-04T07:29:25.998Z,13.58
2019-02-04T07:31:54.322Z,12.63
2019-02-04T07:34:22.609Z,11.38
2019-02-04T07:36:50.594Z,12.88
2019-02-04T07:39:18.532Z,16.42
2019-02-04T07:41:46.816Z,11.75
2019-02-04T07:44:15.090Z,11.33
2019-02-04T07:46:43.633Z,10.03
2019-02-04T07:49:11.958Z,11.80
2019-02-04T07:51:40.126Z,9.73
2019-02-04T07:54:08.069Z,9.08
2019-02-04T07:56:36.362Z,11.03
2019-02-04T07:59:04.296Z,8.23
2019-02-04T08:01:33.225Z,11.03
2019-02-04T08:04:01.156Z,9.00
2019-02-04T08:06:29.784Z,8.98
2019-02-04T08:08:57.822Z,8.45
2019-02-04T08:11:25.821Z,10.15
2019-02-04T08:13:53.730Z,8.95
2019-02-04T08:16:22.077Z,9.65
2019-02-04T08:18:50.037Z,9.33
2019-02-04T08:21:18.286Z,6.80
2019-02-04T08:23:46.277Z,8.10
2019-02-04T08:26:14.872Z,7.35
2019-02-04T08:31:23.833Z,10.32
2019-02-04T08:33:52.093Z,8.23
2019-02-04T08:36:46.484Z,8.53
2019-02-04T08:39:14.408Z,9.90
2019-02-04T08:41:42.831Z,10.48
2019-02-04T08:44:11.229Z,10.48
2019-02-04T08:46:39.544Z,8.33
2019-02-04T08:49:07.698Z,8.53
2019-02-04T08:51:35.737Z,11.53
2019-02-04T08:54:03.854Z,8.43
2019-02-04T08:56:32.308Z,7.42
2019-02-04T08:59:01.237Z,7.05
2019-02-04T09:01:29.752Z,9.43
2019-02-04T09:03:57.879Z,7.55
2019-02-04T09:06:26.337Z,8.13
2019-02-04T09:08:54.525Z,10.68
2019-02-04T09:11:23.032Z,9.38
2019-02-04T09:13:51.209Z,9.08
2019-02-04T09:16:19.835Z,7.87
2019-02-04T09:18:48.424Z,8.53
2019-02-04T09:21:17.003Z,9.60
2019-02-04T09:23:45.052Z,10.43
2019-02-04T09:26:13.214Z,9.98
2019-02-04T09:28:41.740Z,10.37
2019-02-04T09:31:10.538Z,10.58
2019-02-04T09:33:38.711Z,14.93
2019-02-04T09:36:07.032Z,13.72
2019-02-04T09:38:35.203Z,9.57
2019-02-04T09:41:03.960Z,11.30
2019-02-04T09:43:33.653Z,10.78
2019-02-04T09:46:01.696Z,12.43
2019-02-04T09:48:29.793Z,10.75
2019-02-04T09:50:59.355Z,11.85
2019-02-04T09:53:27.707Z,10.58
2019-02-04T09:55:57.125Z,14.93
2019-02-04T09:58:25.693Z,13.95
2019-02-04T10:00:54.943Z,12.85
2019-02-04T10:03:23.367Z,12.65
2019-02-04T10:05:51.972Z,13.50
2019-02-04T10:08:20.536Z,12.40
2019-02-04T10:10:49.154Z,15.20
2019-02-04T10:13:17.345Z,14.20
2019-02-04T10:15:46.189Z,14.38
2019-02-04T10:18:14.331Z,14.33
2019-02-04T10:20:42.947Z,13.78
2019-02-04T10:23:11.345Z,13.98
2019-02-04T10:25:40.813Z,13.48
2019-02-04T10:28:09.182Z,13.30
2019-02-04T10:30:37.837Z,17.00
2019-02-04T10:33:05.942Z,15.75
2019-02-04T10:35:34.860Z,16.37
2019-02-04T10:38:03.245Z,14.43
2019-02-04T10:40:31.370Z,14.68
2019-02-04T10:42:59.564Z,15.72
2019-02-04T10:45:27.874Z,15.50
2019-02-04T10:47:56.223Z,15.55
2019-02-04T10:50:26.111Z,14.73
2019-02-04T10:52:54.257Z,16.75
2019-02-04T10:55:23.427Z,15.08
2019-02-04T10:57:51.842Z,14.90
2019-02-04T11:00:21.739Z,15.58
2019-02-04T11:02:49.805Z,14.80
2019-02-04T11:05:19.796Z,13.85
2019-02-04T11:07:48.518Z,18.17
2019-02-04T11:10:18.317Z,14.63
2019-02-04T11:15:25.510Z,15.40
2019-02-04T11:17:52.829Z,16.07
2019-02-04T11:20:22.583Z,17.00
2019-02-04T11:22:51.539Z,14.90
2019-02-04T11:25:19.957Z,16.00
2019-02-04T11:27:48.293Z,13.38
2019-02-04T11:30:20.668Z,13.75
2019-02-04T11:32:57.391Z,14.24
2019-02-04T11:35:25.845Z,13.85
2019-02-04T11:37:54.256Z,13.55
2019-02-04T11:40:24.266Z,14.03
2019-02-04T11:42:52.706Z,14.70
2019-02-04T11:45:20.758Z,15.80
2019-02-04T11:47:49.155Z,14.28
2019-02-04T11:50:17.201Z,14.90
2019-02-04T11:52:45.235Z,14.53
2019-02-04T11:55:13.752Z,18.50
2019-02-04T11:57:42.335Z,17.17
2019-02-04T12:00:13.094Z,17.17
2019-02-04T12:02:41.432Z,15.80
2019-02-04T12:05:10.778Z,14.95
2019-02-04T12:07:38.932Z,13.88
2019-02-04T12:10:08.149Z,14.93
2019-02-04T12:12:37.347Z,14.45
2019-02-04T12:15:08.088Z,13.60
2019-02-04T12:17:36.427Z,14.50
2019-02-04T12:20:05.364Z,14.93
2019-02-04T12:22:33.448Z,14.57
2019-02-04T12:25:01.801Z,15.17
2019-02-04T12:27:32.076Z,14.13
2019-02-04T12:30:00.457Z,14.28
2019-02-04T12:32:28.760Z,15.38
2019-02-04T12:34:56.844Z,14.53
2019-02-04T12:37:25.229Z,13.95
2019-02-04T12:39:53.372Z,13.00
2019-02-04T12:42:21.449Z,15.27
2019-02-04T12:44:49.769Z,12.47
2019-02-04T12:47:17.801Z,14.83
2019-02-04T12:49:46.030Z,14.30
2019-02-04T12:52:14.399Z,14.05
2019-02-04T12:54:42.767Z,15.07
2019-02-04T12:57:10.811Z,15.58
2019-02-04T12:59:39.238Z,13.48
2019-02-04T13:02:07.412Z,14.63
2019-02-04T13:04:35.778Z,14.60
2019-02-04T13:07:04.156Z,13.25
2019-02-04T13:09:32.523Z,14.07
2019-02-04T13:12:00.543Z,15.30
2019-02-04T13:14:28.914Z,12.35
2019-02-04T13:16:57.236Z,14.40
2019-02-04T13:19:25.633Z,14.40
2019-02-04T13:21:54.316Z,13.62
2019-02-04T13:24:22.712Z,13.60
2019-02-04T13:26:51.100Z,13.75
2019-02-04T13:29:19.146Z,13.10
2019-02-04T13:31:47.219Z,13.43
2019-02-04T13:34:15.294Z,13.25
2019-02-04T13:36:43.623Z,12.95
2019-02-04T13:39:11.726Z,12.80
2019-02-04T13:41:40.065Z,13.38
2019-02-04T13:44:08.125Z,13.45
2019-02-04T13:46:36.577Z,14.55
2019-02-04T13:49:04.757Z,13.13
2019-02-04T13:51:33.237Z,12.68
2019-02-04T13:54:01.651Z,13.43
2019-02-04T13:56:30.017Z,11.88
2019-02-04T13:58:58.371Z,11.45
2019-02-04T14:01:26.468Z,14.25
2019-02-04T14:03:54.966Z,11.80
2019-02-04T14:06:23.025Z,10.88
2019-02-04T14:08:51.433Z,10.85
2019-02-04T14:11:19.477Z,11.33
2019-02-04T14:13:47.901Z,13.20
2019-02-04T14:16:16.013Z,12.03
2019-02-04T14:18:44.079Z,11.55
2019-02-04T14:21:12.322Z,12.55
2019-02-04T14:23:40.993Z,11.15
2019-02-04T14:26:09.054Z,9.55
2019-02-04T14:28:37.492Z,10.70
2019-02-04T14:31:05.877Z,10.45
2019-02-04T14:33:33.891Z,13.43
2019-02-04T14:36:01.965Z,10.18
2019-02-04T14:38:30.596Z,10.90
2019-02-04T14:40:59.107Z,12.07
2019-02-04T14:43:29.895Z,10.98
2019-02-04T14:46:35.195Z,10.28
2019-02-04T14:49:28.827Z,19.77
2019-02-04T14:52:21.387Z,12.82
2019-02-04T14:55:06.484Z,10.57
2019-02-04T14:57:59.611Z,13.05
2019-02-04T15:00:55.302Z,10.85
2019-02-04T15:06:00.899Z,10.10
2019-02-04T15:08:46.613Z,11.48
2019-02-04T15:11:27.031Z,10.40
2019-02-04T15:14:23.781Z,12.90
2019-02-04T15:16:54.712Z,10.63
2019-02-04T15:19:31.911Z,13.65
2019-02-04T15:22:12.182Z,10.13
2019-02-04T15:24:54.787Z,11.40
2019-02-04T15:27:37.596Z,11.33
2019-02-04T15:30:14.089Z,9.85
2019-02-04T15:32:57.568Z,10.38
2019-02-04T15:35:37.761Z,9.93
2019-02-04T15:38:31.214Z,9.98
2019-02-04T15:41:17.525Z,11.30
2019-02-04T15:43:56.231Z,9.48
2019-02-04T15:46:31.204Z,12.55
2019-02-04T15:49:24.627Z,9.40
2019-02-04T15:51:55.105Z,11.95
2019-02-04T15:54:23.451Z,11.00
2019-02-04T15:56:51.865Z,10.85
2019-02-04T15:59:19.932Z,11.05
2019-02-04T16:01:48.058Z,9.60
2019-02-04T16:04:32.554Z,10.50
2019-02-04T16:07:00.654Z,10.70
2019-02-04T16:09:29.026Z,11.50
2019-02-04T16:11:57.757Z,12.13
2019-02-04T16:14:26.156Z,10.95
2019-02-04T16:16:54.848Z,13.35
2019-02-04T16:19:22.911Z,11.30
2019-02-04T16:21:51.208Z,12.57
2019-02-04T16:24:19.582Z,10.30
2019-02-04T16:26:48.062Z,11.15
2019-02-04T16:29:16.369Z,12.70
2019-02-04T16:31:44.703Z,13.13
2019-02-04T16:34:12.802Z,13.22
2019-02-04T16:36:41.276Z,12.73
2019-02-04T16:39:10.566Z,14.80
2019-02-04T16:41:38.786Z,13.93
2019-02-04T16:44:07.503Z,13.10
2019-02-04T16:46:37.300Z,15.23
2019-02-04T16:49:05.573Z,13.10
2019-02-04T16:51:33.692Z,12.00
2019-02-04T16:54:02.221Z,13.80
2019-02-04T16:56:30.296Z,11.90
2019-02-04T16:58:58.760Z,12.98
2019-02-04T17:01:26.859Z,10.50
2019-02-04T17:03:55.208Z,11.25
2019-02-04T17:06:23.277Z,13.30
2019-02-04T17:08:51.733Z,12.33
2019-02-04T17:11:19.878Z,11.73
2019-02-04T17:13:48.078Z,11.30
2019-02-04T17:16:16.482Z,12.65
2019-02-04T17:18:44.565Z,11.65
2019-02-04T17:21:12.964Z,11.03
2019-02-04T17:23:41.844Z,12.50
2019-02-04T17:26:10.132Z,11.20
2019-02-04T17:28:38.351Z,12.53
2019-02-04T17:31:06.839Z,12.47
2019-02-04T17:33:35.636Z,11.78
2019-02-04T17:36:04.005Z,13.98
2019-02-04T17:38:32.153Z,12.00
2019-02-04T17:41:00.991Z,11.68
2019-02-04T17:43:29.212Z,12.20
2019-02-04T17:45:59.540Z,12.03
2019-02-04T17:48:27.557Z,12.65
2019-02-04T17:50:56.533Z,12.53
2019-02-04T17:53:33.907Z,12.13
2019-02-04T17:55:55.325Z,12.65
2019-02-04T17:58:23.708Z,13.00
2019-02-04T18:00:54.028Z,12.50
2019-02-04T18:03:22.957Z,12.73
2019-02-04T18:05:51.049Z,12.33
2019-02-04T18:08:19.487Z,12.50
2019-02-04T18:10:47.529Z,11.65
2019-02-04T18:13:15.703Z,13.28
2019-02-04T18:15:43.846Z,12.58
2019-02-04T18:18:12.276Z,12.25
2019-02-04T18:20:40.509Z,10.83
2019-02-04T18:23:11.201Z,11.00
2019-02-04T18:25:39.044Z,12.18
2019-02-04T18:28:07.439Z,11.50
2019-02-04T18:30:35.797Z,11.35
2019-02-04T18:33:03.868Z,11.60
2019-02-04T18:35:32.539Z,11.45
2019-02-04T18:38:00.797Z,10.50
2019-02-04T18:40:28.991Z,10.40
2019-02-04T18:42:57.373Z,12.55
2019-02-04T18:45:26.718Z,11.18
2019-02-04T18:47:55.295Z,9.50
2019-02-04T18:50:24.389Z,10.85
2019-02-04T18:52:52.647Z,9.88
2019-02-04T18:55:22.025Z,10.48
2019-02-04T18:57:50.773Z,8.73
2019-02-04T19:00:20.302Z,9.40
2019-02-04T19:02:48.887Z,8.73
2019-02-04T19:05:17.367Z,10.78
2019-02-04T19:07:46.327Z,9.20
2019-02-04T19:10:15.278Z,8.90
2019-02-04T19:12:43.758Z,10.40
2019-02-04T19:15:14.551Z,8.55
2019-02-04T19:17:42.769Z,10.65
2019-02-04T19:20:12.143Z,11.50
2019-02-04T19:22:40.594Z,8.90
2019-02-04T19:25:09.774Z,11.20
2019-02-04T19:27:38.259Z,8.77
2019-02-04T19:30:08.381Z,10.00
2019-02-04T19:32:36.377Z,9.95
2019-02-04T19:35:05.110Z,7.60
2019-02-04T19:37:33.836Z,8.80
2019-02-04T19:40:02.058Z,10.20
2019-02-04T19:42:30.234Z,9.10
2019-02-04T19:44:58.703Z,7.90
2019-02-04T19:47:27.939Z,9.03
2019-02-04T19:49:56.357Z,8.48
2019-02-04T19:52:24.932Z,9.23
2019-02-04T19:54:53.453Z,8.33
2019-02-04T19:57:21.898Z,10.03
2019-02-04T19:59:50.009Z,8.48
2019-02-04T20:02:18.184Z,7.83
2019-02-04T20:04:46.238Z,8.70
2019-02-04T20:07:14.300Z,8.48
2019-02-04T20:09:42.773Z,10.10
2019-02-04T20:12:11.147Z,8.73
2019-02-04T20:14:40.049Z,8.38
2019-02-04T20:17:08.082Z,8.85
2019-02-04T20:19:36.428Z,9.35
2019-02-04T20:22:04.703Z,9.60
2019-02-04T20:24:33.632Z,8.53
2019-02-04T20:27:02.056Z,8.08
2019-02-04T20:29:30.916Z,8.50
2019-02-04T20:31:58.993Z,11.57
2019-02-04T20:34:27.378Z,9.35
2019-02-04T20:36:56.063Z,8.40
2019-02-04T20:39:24.581Z,7.47
2019-02-04T20:41:52.933Z,8.58
2019-02-04T20:44:21.262Z,8.30
2019-02-04T20:46:49.926Z,9.50
2019-02-04T20:49:18.884Z,9.50
2019-02-04T20:51:47.576Z,8.65
2019-02-04T20:54:20.259Z,9.25
2019-02-04T20:56:45.664Z,9.23
2019-02-04T20:59:13.683Z,8.18
2019-02-04T21:01:42.011Z,9.38
2019-02-04T21:04:10.121Z,9.98
2019-02-04T21:06:38.185Z,9.10
2019-02-04T21:09:08.460Z,7.20
2019-02-04T21:11:36.521Z,8.00
2019-02-04T21:14:05.153Z,8.38
2019-02-04T21:16:33.832Z,7.72
2019-02-04T21:19:02.507Z,6.83
2019-02-04T21:21:30.872Z,7.78
2019-02-04T21:23:58.939Z,9.30
2019-02-04T21:26:26.985Z,7.73
2019-02-04T21:28:55.344Z,8.60
2019-02-04T21:31:23.399Z,6.97
2019-02-04T21:33:52.170Z,8.55
2019-02-04T21:36:20.518Z,7.17
2019-02-04T21:38:48.572Z,7.58
2019-02-04T21:41:17.205Z,7.97
2019-02-04T21:43:45.368Z,7.20
2019-02-04T21:46:14.064Z,7.65
2019-02-04T21:48:42.093Z,7.25
2019-02-04T21:51:10.416Z,8.15
2019-02-04T21:53:38.553Z,8.00
2019-02-04T21:56:06.973Z,8.10
2019-02-04T21:58:35.296Z,7.65
2019-02-04T22:01:03.628Z,7.65
2019-02-04T22:03:31.699Z,6.90
2019-02-04T22:06:00.091Z,8.87
2019-02-04T22:08:28.465Z,7.80
2019-02-04T22:10:56.883Z,8.30
2019-02-04T22:13:25.309Z,10.08
2019-02-04T22:15:53.903Z,7.60
2019-02-04T22:18:21.997Z,10.13
2019-02-04T22:20:50.921Z,7.50
2019-02-04T22:23:19.585Z,7.00
2019-02-04T22:25:48.235Z,7.80
2019-02-04T22:28:16.724Z,7.58
2019-02-04T22:30:45.207Z,6.80
2019-02-04T22:33:13.893Z,8.48
2019-02-04T22:35:42.252Z,8.08
2019-02-04T22:38:10.337Z,8.58
2019-02-04T22:40:39.172Z,8.03
2019-02-04T22:43:07.344Z,7.67
2019-02-04T22:45:35.528Z,7.80
2019-02-04T22:48:03.836Z,8.80
2019-02-04T22:50:31.888Z,8.00
2019-02-04T22:53:02.220Z,9.03
2019-02-04T22:55:32.386Z,8.90
2019-02-04T22:58:00.335Z,8.47
2019-02-04T23:00:51.661Z,9.00
2019-02-04T23:03:21.041Z,8.13
2019-02-04T23:05:57.588Z,6.72
2019-02-04T23:08:25.251Z,7.97
2019-02-04T23:10:53.353Z,7.97
2019-02-04T23:13:21.773Z,6.93
2019-02-04T23:15:50.553Z,7.33
2019-02-04T23:18:18.776Z,8.90
2019-02-04T23:20:47.034Z,7.65
2019-02-04T23:23:15.735Z,6.70
2019-02-04T23:25:43.998Z,7.67
2019-02-04T23:28:12.367Z,7.55
2019-02-04T23:30:41.330Z,7.33
2019-02-04T23:33:09.659Z,6.20
2019-02-04T23:35:38.125Z,7.75
2019-02-04T23:38:06.971Z,6.85
2019-02-04T23:40:35.395Z,6.47
2019-02-04T23:43:05.039Z,8.53
2019-02-04T23:45:34.285Z,8.00
2019-02-04T23:48:02.471Z,7.97
2019-02-04T23:50:30.585Z,6.83
2019-02-04T23:52:59.135Z,7.80
2019-02-04T23:55:29.094Z,6.95
2019-02-04T23:57:57.999Z,7.33
